createdAt,value
2023-03-05T00:00:45.665Z,0
2023-03-05T00:01:46.610Z,0
2023-03-05T00:02:47.589Z,0
2023-03-05T00:03:48.326Z,0
2023-03-05T00:04:50.143Z,0
2023-03-05T00:05:51.755Z,0
2023-03-05T00:06:52.623Z,0
2023-03-05T00:07:53.493Z,0
2023-03-05T00:08:54.305Z,0
2023-03-05T00:09:55.592Z,0
2023-03-05T00:11:26.923Z,0
2023-03-05T00:12:27.866Z,0
2023-03-05T00:13:28.742Z,0
2023-03-05T00:14:29.611Z,0
2023-03-05T00:15:31.241Z,0
2023-03-05T00:16:32.691Z,0
2023-03-05T00:17:33.653Z,0
2023-03-05T00:18:34.572Z,0
2023-03-05T00:19:35.452Z,0
2023-03-05T00:20:36.302Z,0
2023-03-05T00:21:37.772Z,0
2023-03-05T00:22:38.853Z,0
2023-03-05T00:23:39.752Z,0
2023-03-05T00:24:40.874Z,0
2023-03-05T00:25:42.717Z,0
2023-03-05T00:26:43.441Z,0
2023-03-05T00:27:44.460Z,0
2023-03-05T00:28:45.384Z,0
2023-03-05T00:29:46.289Z,0
2023-03-05T00:30:47.277Z,0
2023-03-05T00:31:48.053Z,0
2023-03-05T00:32:48.968Z,0
2023-03-05T00:33:49.924Z,0
2023-03-05T00:34:51.024Z,0
2023-03-05T00:35:52.781Z,0
2023-03-05T00:36:53.447Z,0
2023-03-05T00:37:54.320Z,0
2023-03-05T00:39:26.019Z,0
2023-03-05T00:40:27.048Z,0
2023-03-05T00:41:27.977Z,0
2023-03-05T00:42:28.670Z,0
2023-03-05T00:43:30.177Z,0
2023-03-05T00:44:31.251Z,0
2023-03-05T00:45:32.288Z,0
2023-03-05T00:46:34.125Z,0
2023-03-05T00:47:34.874Z,0
2023-03-05T00:48:36.689Z,0
2023-03-05T00:49:37.645Z,0
2023-03-05T00:50:38.595Z,0
2023-03-05T00:51:39.586Z,0
2023-03-05T00:52:40.728Z,0
2023-03-05T00:53:41.540Z,0
2023-03-05T00:54:42.367Z,0
2023-03-05T00:55:43.448Z,0
2023-03-05T00:56:45.318Z,0
2023-03-05T00:57:46.164Z,0
2023-03-05T00:58:47.551Z,0
2023-03-05T00:59:48.368Z,0
2023-03-05T01:00:49.387Z,0
2023-03-05T01:01:50.582Z,0
2023-03-05T01:02:51.636Z,0
2023-03-05T01:03:53.079Z,0
2023-03-05T01:04:53.940Z,0
2023-03-05T01:06:26.671Z,0
2023-03-05T01:07:27.592Z,0
2023-03-05T01:08:28.419Z,0
2023-03-05T01:09:29.221Z,0
2023-03-05T01:10:30.173Z,0
2023-03-05T01:11:31.138Z,0
2023-03-05T01:12:32.162Z,0
2023-03-05T01:13:33.238Z,0
2023-03-05T01:14:34.012Z,0
2023-03-05T01:15:34.898Z,0
2023-03-05T01:16:36.622Z,0
2023-03-05T01:17:37.547Z,0
2023-03-05T01:18:38.626Z,0
2023-03-05T01:19:39.454Z,0
2023-03-05T01:20:40.334Z,0
2023-03-05T01:21:42.140Z,0
2023-03-05T01:22:43.297Z,0
2023-03-05T01:23:44.424Z,0
2023-03-05T01:24:45.357Z,0
2023-03-05T01:25:46.180Z,0
2023-03-05T01:26:48.039Z,0
2023-03-05T01:27:48.986Z,0
2023-03-05T01:28:50.008Z,0
2023-03-05T01:29:50.851Z,0
2023-03-05T01:30:51.718Z,0
2023-03-05T01:31:52.593Z,0
2023-03-05T01:32:53.460Z,0
2023-03-05T01:33:54.940Z,0
2023-03-05T01:35:27.234Z,0
2023-03-05T01:36:28.608Z,0
2023-03-05T01:37:29.405Z,0
2023-03-05T01:38:30.325Z,0
2023-03-05T01:39:31.312Z,0
2023-03-05T01:40:32.200Z,0
2023-03-05T01:41:33.039Z,0
2023-03-05T01:42:34.004Z,0
2023-03-05T01:43:34.838Z,0
2023-03-05T01:44:35.843Z,0
2023-03-05T01:45:36.995Z,0
2023-03-05T01:46:38.690Z,0
2023-03-05T01:47:39.585Z,0
2023-03-05T01:48:41.016Z,0
2023-03-05T01:49:41.994Z,0
2023-03-05T01:50:42.876Z,0
2023-03-05T01:51:43.857Z,0
2023-03-05T01:52:44.760Z,0
2023-03-05T01:53:46.655Z,0
2023-03-05T01:54:47.596Z,0
2023-03-05T01:55:48.511Z,0
2023-03-05T01:56:50.202Z,0
2023-03-05T01:57:51.084Z,0
2023-03-05T01:58:51.911Z,0
2023-03-05T01:59:52.868Z,0
2023-03-05T02:00:53.791Z,0
2023-03-05T02:02:25.396Z,0
2023-03-05T02:03:26.474Z,0
2023-03-05T02:04:28.144Z,0
2023-03-05T02:05:29.009Z,0
2023-03-05T02:06:30.743Z,0
2023-03-05T02:07:31.668Z,0
2023-03-05T02:08:32.751Z,0
2023-03-05T02:09:33.608Z,0
2023-03-05T02:10:34.537Z,0
2023-03-05T02:11:35.437Z,0
2023-03-05T02:12:36.370Z,0
2023-03-05T02:13:38.192Z,0
2023-03-05T02:14:39.139Z,0
2023-03-05T02:15:40.001Z,0
2023-03-05T02:16:41.738Z,0
2023-03-05T02:17:42.691Z,0
2023-03-05T02:18:43.670Z,0
2023-03-05T02:19:44.669Z,0
2023-03-05T02:20:45.656Z,0
2023-03-05T02:21:46.428Z,0
2023-03-05T02:22:47.454Z,0
2023-03-05T02:23:48.389Z,0
2023-03-05T02:24:49.306Z,0
2023-03-05T02:25:50.295Z,0
2023-03-05T02:26:51.637Z,0
2023-03-05T02:27:52.565Z,0
2023-03-05T02:28:53.576Z,0
2023-03-05T02:30:24.973Z,0
2023-03-05T02:31:25.942Z,0
2023-03-05T02:32:26.708Z,0
2023-03-05T02:33:27.534Z,0
2023-03-05T02:34:28.536Z,0
2023-03-05T02:35:29.553Z,0
2023-03-05T02:36:30.417Z,0
2023-03-05T02:37:32.067Z,0
2023-03-05T02:38:32.905Z,0
2023-03-05T02:39:33.840Z,0
2023-03-05T02:40:34.877Z,0
2023-03-05T02:41:35.898Z,0
2023-03-05T02:42:36.666Z,0
2023-03-05T02:43:37.636Z,0
2023-03-05T02:44:38.586Z,0
2023-03-05T02:45:39.662Z,0
2023-03-05T02:46:41.186Z,0
2023-03-05T02:47:42.051Z,0
2023-03-05T02:48:42.855Z,0
2023-03-05T02:49:43.727Z,0
2023-03-05T02:50:44.862Z,0
2023-03-05T02:51:46.774Z,0
2023-03-05T02:52:47.637Z,0
2023-03-05T02:53:48.507Z,0
2023-03-05T02:54:49.320Z,0
2023-03-05T02:55:50.306Z,0
2023-03-05T02:56:52.656Z,0
2023-03-05T02:57:54.004Z,0
2023-03-05T02:59:25.301Z,0
2023-03-05T03:00:26.234Z,0
2023-03-05T03:01:27.281Z,0
2023-03-05T03:02:28.260Z,0
2023-03-05T03:03:29.430Z,0
2023-03-05T03:04:31.122Z,0
2023-03-05T03:05:31.939Z,0
2023-03-05T03:06:32.900Z,0
2023-03-05T03:07:34.655Z,0
2023-03-05T03:08:35.598Z,0
2023-03-05T03:09:36.547Z,0
2023-03-05T03:10:37.459Z,0
2023-03-05T03:11:38.354Z,0
2023-03-05T03:12:40.202Z,0
2023-03-05T03:13:41.413Z,0
2023-03-05T03:14:42.419Z,0
2023-03-05T03:15:43.362Z,0
2023-03-05T03:16:45.185Z,0
2023-03-05T03:17:46.333Z,0
2023-03-05T03:18:48.170Z,0
2023-03-05T03:19:49.177Z,0
2023-03-05T03:20:50.019Z,0
2023-03-05T03:21:50.940Z,0
2023-03-05T03:22:52.848Z,0
2023-03-05T03:24:24.565Z,0
2023-03-05T03:25:25.531Z,0
2023-03-05T03:26:26.444Z,0
2023-03-05T03:27:28.167Z,0
2023-03-05T03:28:29.221Z,0
2023-03-05T03:29:30.137Z,0
2023-03-05T03:30:31.262Z,0
2023-03-05T03:31:33.163Z,0
2023-03-05T03:32:34.036Z,0
2023-03-05T03:33:34.941Z,0
2023-03-05T03:34:35.908Z,0
2023-03-05T03:35:36.907Z,0
2023-03-05T03:36:37.836Z,0
2023-03-05T03:37:39.603Z,0
2023-03-05T03:38:40.804Z,0
2023-03-05T03:39:41.837Z,0
2023-03-05T03:40:42.887Z,0
2023-03-05T03:41:43.859Z,0
2023-03-05T03:42:44.824Z,0
2023-03-05T03:43:45.824Z,0
2023-03-05T03:44:47.209Z,0
2023-03-05T03:45:48.276Z,0
2023-03-05T03:46:49.222Z,0
2023-03-05T03:47:51.179Z,0
2023-03-05T03:48:52.142Z,0
2023-03-05T03:49:53.328Z,0
2023-03-05T03:51:24.784Z,0
2023-03-05T03:52:25.866Z,0
2023-03-05T03:53:26.762Z,0
2023-03-05T03:54:27.736Z,0
2023-03-05T03:55:28.486Z,0
2023-03-05T03:56:29.448Z,0
2023-03-05T03:57:31.171Z,0
2023-03-05T03:58:32.127Z,0
2023-03-05T03:59:33.558Z,0
2023-03-05T04:00:34.327Z,0
2023-03-05T04:01:35.246Z,0
2023-03-05T04:02:36.291Z,0
2023-03-05T04:03:37.318Z,0
2023-03-05T04:04:39.229Z,0
2023-03-05T04:05:40.000Z,0
2023-03-05T04:06:41.109Z,0
2023-03-05T04:07:42.708Z,0
2023-03-05T04:08:43.690Z,0
2023-03-05T04:09:44.599Z,0
2023-03-05T04:10:45.407Z,0
2023-03-05T04:11:46.290Z,0
2023-03-05T04:12:47.185Z,0
2023-03-05T04:13:48.222Z,0
2023-03-05T04:14:49.120Z,0
2023-03-05T04:15:50.165Z,0
2023-03-05T04:16:51.004Z,0
2023-03-05T04:17:53.040Z,0
2023-03-05T04:19:24.454Z,0
2023-03-05T04:20:25.463Z,0
2023-03-05T04:21:26.320Z,0
2023-03-05T04:22:28.076Z,0
2023-03-05T04:23:28.895Z,0
2023-03-05T04:24:29.861Z,0
2023-03-05T04:25:30.932Z,0
2023-03-05T04:26:31.873Z,0
2023-03-05T04:27:33.644Z,0
2023-03-05T04:28:34.442Z,0
2023-03-05T04:29:35.417Z,0
2023-03-05T04:30:36.455Z,0
2023-03-05T04:31:37.415Z,0
2023-03-05T04:32:38.355Z,0
2023-03-05T04:33:39.186Z,0
2023-03-05T04:34:40.125Z,0
2023-03-05T04:35:41.393Z,0
2023-03-05T04:36:42.135Z,0
2023-03-05T04:37:43.631Z,0
2023-03-05T04:38:44.470Z,0
2023-03-05T04:39:45.398Z,0
2023-03-05T04:40:46.348Z,0
2023-03-05T04:41:47.284Z,0
2023-03-05T04:42:48.258Z,0
2023-03-05T04:43:49.152Z,0
2023-03-05T04:44:50.548Z,0
2023-03-05T04:45:51.468Z,0
2023-03-05T04:46:52.873Z,0
2023-03-05T04:48:25.071Z,0
2023-03-05T04:49:25.890Z,0
2023-03-05T04:50:26.880Z,0
2023-03-05T04:51:28.776Z,0
2023-03-05T04:52:29.625Z,0
2023-03-05T04:53:30.633Z,0
2023-03-05T04:54:31.550Z,0
2023-03-05T04:55:32.467Z,0
2023-03-05T04:56:33.372Z,0
2023-03-05T04:57:35.165Z,0
2023-03-05T04:58:36.615Z,0
2023-03-05T04:59:37.497Z,0
2023-03-05T05:00:38.339Z,0
2023-03-05T05:01:39.312Z,0
2023-03-05T05:02:40.275Z,0
2023-03-05T05:03:41.237Z,0
2023-03-05T05:04:42.281Z,0
2023-03-05T05:05:43.139Z,0
2023-03-05T05:06:44.080Z,0
2023-03-05T05:07:45.679Z,0
2023-03-05T05:08:46.601Z,0
2023-03-05T05:09:47.715Z,0
2023-03-05T05:10:48.583Z,0
2023-03-05T05:11:49.471Z,0
2023-03-05T05:12:50.316Z,0
2023-03-05T05:13:51.318Z,0
2023-03-05T05:14:52.742Z,0
2023-03-05T05:16:24.238Z,0
2023-03-05T05:17:25.676Z,0
2023-03-05T05:18:26.500Z,0
2023-03-05T05:19:28.194Z,0
2023-03-05T05:20:29.072Z,0
2023-03-05T05:21:30.109Z,0
2023-03-05T05:22:31.068Z,0
2023-03-05T05:23:31.930Z,0
2023-03-05T05:24:32.976Z,0
2023-03-05T05:25:34.024Z,0
2023-03-05T05:26:35.688Z,0
2023-03-05T05:27:36.635Z,0
2023-03-05T05:28:37.566Z,0
2023-03-05T05:29:38.542Z,0
2023-03-05T05:30:39.542Z,0
2023-03-05T05:31:40.972Z,0
2023-03-05T05:32:42.151Z,0
2023-03-05T05:33:43.569Z,0
2023-03-05T05:34:44.396Z,0
2023-03-05T05:35:45.512Z,0
2023-03-05T05:36:46.396Z,0
2023-03-05T05:37:47.448Z,0
2023-03-05T05:38:48.259Z,0
2023-03-05T05:39:49.059Z,0
2023-03-05T05:40:49.987Z,0
2023-03-05T05:41:50.940Z,0
2023-03-05T05:42:52.352Z,0
2023-03-05T05:44:24.515Z,0
2023-03-05T05:45:25.562Z,0
2023-03-05T05:46:26.450Z,0
2023-03-05T05:47:28.264Z,4
2023-03-05T05:48:29.228Z,4
2023-03-05T05:49:30.147Z,0
2023-03-05T05:50:31.027Z,0
2023-03-05T05:51:32.028Z,4
2023-03-05T05:52:32.937Z,0
2023-03-05T05:53:34.724Z,4
2023-03-05T05:54:35.660Z,4
2023-03-05T05:55:36.609Z,8
2023-03-05T05:56:38.135Z,4
2023-03-05T05:57:39.100Z,4
2023-03-05T05:58:40.079Z,12
2023-03-05T05:59:41.309Z,12
2023-03-05T06:00:42.116Z,12
2023-03-05T06:01:43.055Z,16
2023-03-05T06:02:44.119Z,16
2023-03-05T06:03:45.680Z,16
2023-03-05T06:04:47.591Z,16
2023-03-05T06:05:48.485Z,20
2023-03-05T06:06:49.361Z,24
2023-03-05T06:07:50.218Z,24
2023-03-05T06:08:51.156Z,32
2023-03-05T06:10:22.946Z,32
2023-03-05T06:11:23.854Z,36
2023-03-05T06:12:24.688Z,40
2023-03-05T06:13:26.177Z,44
2023-03-05T06:14:27.163Z,44
2023-03-05T06:15:28.092Z,48
2023-03-05T06:16:29.222Z,52
2023-03-05T06:17:30.899Z,56
2023-03-05T06:18:31.533Z,60
2023-03-05T06:19:32.502Z,64
2023-03-05T06:20:33.452Z,68
2023-03-05T06:21:34.409Z,76
2023-03-05T06:22:35.359Z,80
2023-03-05T06:23:37.182Z,88
2023-03-05T06:24:38.226Z,92
2023-03-05T06:25:39.060Z,92
2023-03-05T06:26:39.954Z,100
2023-03-05T06:27:41.096Z,100
2023-03-05T06:28:41.999Z,104
2023-03-05T06:29:42.893Z,108
2023-03-05T06:30:43.791Z,112
2023-03-05T06:31:44.668Z,112
2023-03-05T06:32:45.625Z,116
2023-03-05T06:33:47.137Z,120
2023-03-05T06:34:48.006Z,128
2023-03-05T06:35:49.078Z,128
2023-03-05T06:36:50.035Z,136
2023-03-05T06:37:50.993Z,140
2023-03-05T06:39:22.567Z,140
2023-03-05T06:40:23.519Z,140
2023-03-05T06:41:24.351Z,144
2023-03-05T06:42:25.311Z,152
2023-03-05T06:43:27.178Z,156
2023-03-05T06:44:28.656Z,164
2023-03-05T06:45:29.536Z,172
2023-03-05T06:46:30.471Z,180
2023-03-05T06:47:31.427Z,188
2023-03-05T06:48:33.196Z,196
2023-03-05T06:49:34.143Z,200
2023-03-05T06:50:35.071Z,208
2023-03-05T06:51:36.637Z,208
2023-03-05T06:52:37.658Z,216
2023-03-05T06:53:39.172Z,220
2023-03-05T06:54:40.114Z,224
2023-03-05T06:55:41.161Z,228
2023-03-05T06:56:42.007Z,232
2023-03-05T06:57:42.880Z,236
2023-03-05T06:58:43.847Z,244
2023-03-05T06:59:44.786Z,252
2023-03-05T07:00:45.653Z,256
2023-03-05T07:01:47.137Z,264
2023-03-05T07:02:48.328Z,272
2023-03-05T07:03:49.673Z,280
2023-03-05T07:04:50.626Z,296
2023-03-05T07:06:22.113Z,312
2023-03-05T07:07:22.919Z,316
2023-03-05T07:08:24.638Z,320
2023-03-05T07:09:25.588Z,320
2023-03-05T07:10:26.574Z,328
2023-03-05T07:11:27.554Z,332
2023-03-05T07:12:28.295Z,336
2023-03-05T07:13:29.092Z,344
2023-03-05T07:14:30.683Z,352
2023-03-05T07:15:31.621Z,360
2023-03-05T07:16:32.556Z,368
2023-03-05T07:17:33.387Z,372
2023-03-05T07:18:35.094Z,380
2023-03-05T07:19:35.881Z,384
2023-03-05T07:20:36.826Z,388
2023-03-05T07:21:39.909Z,396
2023-03-05T07:22:38.619Z,400
2023-03-05T07:23:39.447Z,404
2023-03-05T07:24:41.118Z,408
2023-03-05T07:25:42.077Z,412
2023-03-05T07:26:43.743Z,420
2023-03-05T07:27:44.531Z,428
2023-03-05T07:28:45.302Z,432
2023-03-05T07:29:46.174Z,436
2023-03-05T07:30:47.218Z,444
2023-03-05T07:31:48.191Z,448
2023-03-05T07:32:49.062Z,452
2023-03-05T07:33:50.667Z,460
2023-03-05T07:35:21.903Z,468
2023-03-05T07:36:22.831Z,472
2023-03-05T07:37:23.767Z,476
2023-03-05T07:38:24.573Z,480
2023-03-05T07:39:25.410Z,488
2023-03-05T07:40:26.197Z,492
2023-03-05T07:41:27.194Z,496
2023-03-05T07:42:28.198Z,500
2023-03-05T07:43:29.089Z,500
2023-03-05T07:44:30.519Z,504
2023-03-05T07:45:31.416Z,516
2023-03-05T07:46:33.275Z,520
2023-03-05T07:47:34.164Z,524
2023-03-05T07:48:35.092Z,520
2023-03-05T07:49:36.022Z,524
2023-03-05T07:50:36.791Z,524
2023-03-05T07:51:38.675Z,532
2023-03-05T07:52:39.688Z,540
2023-03-05T07:53:40.815Z,548
2023-03-05T07:54:42.615Z,552
2023-03-05T07:55:43.497Z,556
2023-03-05T07:56:44.249Z,560
2023-03-05T07:57:45.169Z,572
2023-03-05T07:58:45.920Z,576
2023-03-05T07:59:46.765Z,580
2023-03-05T08:00:47.633Z,580
2023-03-05T08:01:48.438Z,584
2023-03-05T08:02:49.551Z,592
2023-03-05T08:03:50.869Z,604
2023-03-05T08:05:23.167Z,616
2023-03-05T08:06:24.042Z,616
2023-03-05T08:07:24.933Z,616
2023-03-05T08:08:25.754Z,624
2023-03-05T08:09:26.577Z,632
2023-03-05T08:10:27.391Z,648
2023-03-05T08:11:28.209Z,656
2023-03-05T08:12:29.138Z,656
2023-03-05T08:13:30.052Z,652
2023-03-05T08:14:31.712Z,660
2023-03-05T08:15:32.671Z,672
2023-03-05T08:16:33.552Z,688
2023-03-05T08:17:34.518Z,696
2023-03-05T08:18:36.176Z,684
2023-03-05T08:19:36.919Z,668
2023-03-05T08:20:37.787Z,664
2023-03-05T08:21:38.764Z,668
2023-03-05T08:22:40.184Z,676
2023-03-05T08:23:41.089Z,680
2023-03-05T08:24:42.630Z,680
2023-03-05T08:25:43.646Z,680
2023-03-05T08:26:44.578Z,676
2023-03-05T08:27:45.481Z,680
2023-03-05T08:28:46.486Z,680
2023-03-05T08:29:47.428Z,684
2023-03-05T08:30:48.475Z,688
2023-03-05T08:31:49.557Z,704
2023-03-05T08:33:21.226Z,700
2023-03-05T08:34:22.623Z,700
2023-03-05T08:35:23.535Z,696
2023-03-05T08:36:24.354Z,704
2023-03-05T08:37:25.438Z,712
2023-03-05T08:38:26.293Z,716
2023-03-05T08:39:27.198Z,724
2023-03-05T08:40:28.063Z,728
2023-03-05T08:41:29.102Z,728
2023-03-05T08:42:30.028Z,728
2023-03-05T08:43:30.984Z,736
2023-03-05T08:44:32.735Z,740
2023-03-05T08:45:33.528Z,744
2023-03-05T08:46:34.417Z,752
2023-03-05T08:47:35.172Z,756
2023-03-05T08:48:36.643Z,760
2023-03-05T08:49:37.545Z,760
2023-03-05T08:50:39.089Z,764
2023-03-05T08:51:39.243Z,772
2023-03-05T08:52:40.198Z,788
2023-03-05T08:53:41.218Z,800
2023-03-05T08:54:43.288Z,804
2023-03-05T08:55:44.329Z,800
2023-03-05T08:56:44.863Z,796
2023-03-05T08:57:45.744Z,788
2023-03-05T08:58:46.656Z,784
2023-03-05T08:59:48.120Z,788
2023-03-05T09:00:48.950Z,792
2023-03-05T09:01:50.304Z,800
2023-03-05T09:03:21.655Z,800
2023-03-05T09:04:22.599Z,808
2023-03-05T09:05:24.473Z,820
2023-03-05T09:06:25.418Z,820
2023-03-05T09:07:27.059Z,832
2023-03-05T09:08:27.907Z,832
2023-03-05T09:09:28.844Z,832
2023-03-05T09:10:29.797Z,836
2023-03-05T09:11:30.678Z,836
2023-03-05T09:12:31.521Z,852
2023-03-05T09:13:32.332Z,868
2023-03-05T09:14:34.185Z,872
2023-03-05T09:15:35.704Z,880
2023-03-05T09:16:36.704Z,884
2023-03-05T09:17:37.544Z,900
2023-03-05T09:18:39.224Z,912
2023-03-05T09:19:40.116Z,920
2023-03-05T09:20:41.167Z,924
2023-03-05T09:21:42.667Z,924
2023-03-05T09:22:43.472Z,916
2023-03-05T09:23:44.403Z,920
2023-03-05T09:24:46.168Z,920
2023-03-05T09:25:47.034Z,924
2023-03-05T09:26:47.703Z,924
2023-03-05T09:27:48.504Z,892
2023-03-05T09:29:20.648Z,912
2023-03-05T09:30:22.224Z,956
2023-03-05T09:31:23.276Z,972
2023-03-05T09:32:24.091Z,960
2023-03-05T09:33:25.026Z,960
2023-03-05T09:34:25.904Z,980
2023-03-05T09:35:27.615Z,1000
2023-03-05T09:36:29.276Z,1044
2023-03-05T09:37:30.702Z,1084
2023-03-05T09:38:31.642Z,1140
2023-03-05T09:39:33.159Z,1160
2023-03-05T09:40:33.991Z,1180
2023-03-05T09:41:35.693Z,1204
2023-03-05T09:42:37.149Z,1212
2023-03-05T09:43:38.139Z,1236
2023-03-05T09:44:38.983Z,1268
2023-03-05T09:45:41.040Z,1308
2023-03-05T09:46:42.133Z,1392
2023-03-05T09:47:43.017Z,1436
2023-03-05T09:48:44.642Z,1448
2023-03-05T09:49:45.572Z,1404
2023-03-05T09:50:46.346Z,1372
2023-03-05T09:51:47.118Z,1344
2023-03-05T09:52:48.422Z,1324
2023-03-05T09:53:49.821Z,1340
2023-03-05T09:55:22.160Z,1336
2023-03-05T09:56:22.909Z,1284
2023-03-05T09:57:23.813Z,1236
2023-03-05T09:58:24.719Z,1220
2023-03-05T09:59:26.591Z,1232
2023-03-05T10:00:27.359Z,1236
2023-03-05T10:01:29.139Z,1228
2023-03-05T10:02:29.953Z,1204
2023-03-05T10:03:31.730Z,1172
2023-03-05T10:04:33.163Z,1140
2023-03-05T10:05:34.613Z,1116
2023-03-05T10:06:35.425Z,1092
2023-03-05T10:07:36.324Z,1096
2023-03-05T10:08:37.329Z,1132
2023-03-05T10:09:39.138Z,1172
2023-03-05T10:10:39.967Z,1188
2023-03-05T10:11:41.142Z,1196
2023-03-05T10:12:42.993Z,1228
2023-03-05T10:13:43.653Z,1280
2023-03-05T10:14:44.590Z,1340
2023-03-05T10:15:46.155Z,1388
2023-03-05T10:16:46.965Z,1400
2023-03-05T10:17:48.724Z,1364
2023-03-05T10:19:21.195Z,1348
2023-03-05T10:20:22.336Z,1348
2023-03-05T10:21:23.098Z,1348
2023-03-05T10:22:23.925Z,1336
2023-03-05T10:23:24.920Z,1328
2023-03-05T10:24:25.813Z,1332
2023-03-05T10:25:27.792Z,1324
2023-03-05T10:26:28.774Z,1344
2023-03-05T10:27:29.799Z,1380
2023-03-05T10:28:30.718Z,1412
2023-03-05T10:29:32.600Z,1432
2023-03-05T10:30:33.474Z,1456
2023-03-05T10:31:34.391Z,1476
2023-03-05T10:32:36.133Z,1456
2023-03-05T10:33:37.133Z,1428
2023-03-05T10:34:38.005Z,1416
2023-03-05T10:35:39.758Z,1432
2023-03-05T10:36:40.664Z,1472
2023-03-05T10:37:41.493Z,1520
2023-03-05T10:38:42.535Z,1552
2023-03-05T10:39:43.435Z,1528
2023-03-05T10:40:45.165Z,1464
2023-03-05T10:41:46.090Z,1388
2023-03-05T10:42:46.878Z,1348
2023-03-05T10:43:47.883Z,1332
2023-03-05T10:44:49.228Z,1368
2023-03-05T10:46:21.572Z,1372
2023-03-05T10:47:23.112Z,1380
2023-03-05T10:48:24.124Z,1456
2023-03-05T10:49:25.709Z,1540
2023-03-05T10:50:26.571Z,1596
2023-03-05T10:51:27.394Z,1572
2023-03-05T10:52:28.327Z,1500
2023-03-05T10:53:29.183Z,1440
2023-03-05T10:54:30.718Z,1436
2023-03-05T10:55:32.228Z,1456
2023-03-05T10:56:33.019Z,1460
2023-03-05T10:57:33.787Z,1456
2023-03-05T10:58:34.757Z,1448
2023-03-05T10:59:35.767Z,1440
2023-03-05T11:00:36.603Z,1452
2023-03-05T11:01:37.752Z,1476
2023-03-05T11:02:38.514Z,1492
2023-03-05T11:03:39.474Z,1528
2023-03-05T11:04:40.447Z,1544
2023-03-05T11:05:42.306Z,1564
2023-03-05T11:06:44.181Z,1596
2023-03-05T11:07:45.005Z,1612
2023-03-05T11:08:45.852Z,1652
2023-03-05T11:09:47.730Z,1660
2023-03-05T11:10:49.088Z,1580
2023-03-05T11:12:20.424Z,1520
2023-03-05T11:13:21.231Z,1496
2023-03-05T11:14:22.127Z,1492
2023-03-05T11:15:23.079Z,1548
2023-03-05T11:16:24.647Z,1648
2023-03-05T11:17:25.424Z,1724
2023-03-05T11:18:26.213Z,1748
2023-03-05T11:19:27.557Z,1692
2023-03-05T11:20:28.436Z,1612
2023-03-05T11:21:29.360Z,1564
2023-03-05T11:22:30.233Z,1520
2023-03-05T11:23:32.094Z,1492
2023-03-05T11:24:32.856Z,1488
2023-03-05T11:25:33.727Z,1480
2023-03-05T11:26:34.625Z,1488
2023-03-05T11:27:36.124Z,1504
2023-03-05T11:28:36.963Z,1540
2023-03-05T11:29:37.784Z,1560
2023-03-05T11:30:38.820Z,1596
2023-03-05T11:31:39.772Z,1656
2023-03-05T11:32:40.948Z,1680
2023-03-05T11:33:42.696Z,1696
2023-03-05T11:34:43.572Z,1728
2023-03-05T11:35:45.679Z,1888
2023-03-05T11:36:46.605Z,2088
2023-03-05T11:37:47.552Z,2180
2023-03-05T11:38:49.762Z,2160
2023-03-05T11:40:21.545Z,2116
2023-03-05T11:41:22.442Z,2148
2023-03-05T11:42:23.421Z,2068
2023-03-05T11:43:25.189Z,2064
2023-03-05T11:44:26.091Z,1996
2023-03-05T11:45:26.919Z,1968
2023-03-05T11:46:28.759Z,1908
2023-03-05T11:47:29.442Z,1856
2023-03-05T11:48:30.232Z,1808
2023-03-05T11:49:34.869Z,1796
2023-03-05T11:50:32.995Z,1796
2023-03-05T11:51:33.821Z,1828
2023-03-05T11:52:34.756Z,1852
2023-03-05T11:53:35.729Z,1852
2023-03-05T11:54:36.565Z,1820
2023-03-05T11:55:37.312Z,1808
2023-03-05T11:56:38.967Z,1804
2023-03-05T11:57:39.909Z,1720
2023-03-05T11:58:41.048Z,1680
2023-03-05T11:59:41.891Z,1620
2023-03-05T12:00:42.736Z,1656
2023-03-05T12:01:43.550Z,1688
2023-03-05T12:02:45.089Z,1708
2023-03-05T12:03:45.941Z,1748
2023-03-05T12:04:46.940Z,1776
2023-03-05T12:05:47.727Z,1824
2023-03-05T12:07:19.962Z,1864
2023-03-05T12:08:20.806Z,1900
2023-03-05T12:09:21.626Z,1892
2023-03-05T12:10:22.397Z,1820
2023-03-05T12:11:23.163Z,1868
2023-03-05T12:12:23.922Z,1780
2023-03-05T12:13:24.740Z,1744
2023-03-05T12:14:25.588Z,1792
2023-03-05T12:15:26.368Z,1896
2023-03-05T12:16:28.150Z,1932
2023-03-05T12:17:29.593Z,1984
2023-03-05T12:18:30.326Z,1964
2023-03-05T12:19:31.176Z,2028
2023-03-05T12:20:32.724Z,2152
2023-03-05T12:21:33.520Z,2220
2023-03-05T12:22:34.380Z,2368
2023-03-05T12:23:35.117Z,2448
2023-03-05T12:24:35.925Z,2588
2023-03-05T12:25:36.734Z,2616
2023-03-05T12:26:38.539Z,2624
2023-03-05T12:27:39.344Z,2544
2023-03-05T12:28:40.436Z,2480
2023-03-05T12:29:41.046Z,2412
2023-03-05T12:30:42.342Z,2420
2023-03-05T12:31:42.914Z,2440
2023-03-05T12:32:43.692Z,2492
2023-03-05T12:33:44.551Z,2552
2023-03-05T12:34:45.379Z,2620
2023-03-05T12:35:47.996Z,2608
2023-03-05T12:36:48.124Z,2568
2023-03-05T12:38:26.694Z,2528
2023-03-05T12:39:20.074Z,2476
2023-03-05T12:40:21.605Z,2544
2023-03-05T12:41:22.360Z,2400
2023-03-05T12:42:23.207Z,2576
2023-03-05T12:43:24.015Z,2512
2023-03-05T12:44:24.745Z,2524
2023-03-05T12:45:25.514Z,2496
2023-03-05T12:46:27.167Z,2708
2023-03-05T12:47:27.916Z,2764
2023-03-05T12:48:28.827Z,2756
2023-03-05T12:49:30.046Z,2760
2023-03-05T12:50:30.853Z,2808
2023-03-05T12:51:31.684Z,2896
2023-03-05T12:52:33.018Z,2876
2023-03-05T12:53:33.846Z,2820
2023-03-05T12:54:34.624Z,2796
2023-03-05T12:55:35.457Z,2828
2023-03-05T12:56:37.127Z,2832
2023-03-05T12:57:37.869Z,2928
2023-03-05T12:58:38.696Z,3044
2023-03-05T12:59:39.581Z,3016
2023-03-05T13:00:40.668Z,2976
2023-03-05T13:01:41.571Z,3084
2023-03-05T13:02:42.370Z,2924
2023-03-05T13:03:43.185Z,3012
2023-03-05T13:04:44.022Z,3056
2023-03-05T13:05:44.886Z,3080
2023-03-05T13:06:46.728Z,3168
2023-03-05T13:07:48.022Z,3144
2023-03-05T13:09:19.260Z,3268
2023-03-05T13:10:20.061Z,3324
2023-03-05T13:11:20.813Z,3360
2023-03-05T13:12:21.650Z,3360
2023-03-05T13:13:22.363Z,3440
2023-03-05T13:14:23.170Z,3496
2023-03-05T13:15:23.985Z,3516
2023-03-05T13:16:25.726Z,3560
2023-03-05T13:17:27.166Z,3584
2023-03-05T13:18:28.100Z,3612
2023-03-05T13:19:28.867Z,3640
2023-03-05T13:20:29.680Z,3692
2023-03-05T13:21:30.722Z,3756
2023-03-05T13:22:32.083Z,3816
2023-03-05T13:23:32.948Z,3896
2023-03-05T13:24:33.838Z,4028
2023-03-05T13:25:34.695Z,4336
2023-03-05T13:26:36.112Z,4888
2023-03-05T13:27:36.912Z,5968
2023-03-05T13:28:37.738Z,14336
2023-03-05T13:29:38.479Z,27808
2023-03-05T13:30:39.266Z,33280
2023-03-05T13:31:40.092Z,36800
2023-03-05T13:32:41.083Z,36672
2023-03-05T13:33:41.891Z,37184
2023-03-05T13:34:47.717Z,36896
2023-03-05T13:35:43.532Z,37312
2023-03-05T13:36:45.092Z,37696
2023-03-05T13:37:45.930Z,38400
2023-03-05T13:38:46.776Z,34880
2023-03-05T13:40:18.193Z,31424
2023-03-05T13:41:19.140Z,30432
2023-03-05T13:42:20.142Z,30208
2023-03-05T13:43:20.823Z,30880
2023-03-05T13:44:22.129Z,34528
2023-03-05T13:45:22.897Z,35520
2023-03-05T13:46:23.831Z,36704
2023-03-05T13:47:25.624Z,36736
2023-03-05T13:48:26.439Z,35648
2023-03-05T13:49:28.039Z,36672
2023-03-05T13:50:28.790Z,32192
2023-03-05T13:51:29.542Z,20704
2023-03-05T13:52:31.258Z,12028
2023-03-05T13:53:32.008Z,11240
2023-03-05T13:54:33.102Z,10748
2023-03-05T13:55:33.866Z,10356
2023-03-05T13:56:34.695Z,9996
2023-03-05T13:57:36.023Z,9772
2023-03-05T13:58:36.820Z,9696
2023-03-05T13:59:37.573Z,9516
2023-03-05T14:00:38.472Z,9264
2023-03-05T14:01:39.282Z,8992
2023-03-05T14:02:40.024Z,8240
2023-03-05T14:03:41.044Z,8104
2023-03-05T14:04:41.898Z,7700
2023-03-05T14:05:42.602Z,7472
2023-03-05T14:06:43.601Z,7768
2023-03-05T14:07:45.039Z,7720
2023-03-05T14:08:45.902Z,9584
2023-03-05T14:09:47.174Z,13964
2023-03-05T14:11:18.741Z,8528
2023-03-05T14:12:20.211Z,7720
2023-03-05T14:13:21.045Z,7588
2023-03-05T14:14:21.844Z,7220
2023-03-05T14:15:22.648Z,6952
2023-03-05T14:16:23.427Z,7112
2023-03-05T14:17:25.093Z,7160
2023-03-05T14:18:25.923Z,6884
2023-03-05T14:19:26.682Z,6608
2023-03-05T14:20:27.537Z,6624
2023-03-05T14:21:28.320Z,6676
2023-03-05T14:22:29.978Z,6836
2023-03-05T14:23:30.782Z,7116
2023-03-05T14:24:31.516Z,8500
2023-03-05T14:25:32.561Z,13500
2023-03-05T14:26:33.238Z,16832
2023-03-05T14:27:35.209Z,11720
2023-03-05T14:28:36.049Z,7828
2023-03-05T14:29:36.808Z,7380
2023-03-05T14:30:37.798Z,7120